createdAt,value
2023-01-18T00:01:22.486Z,98955.38
2023-01-18T00:03:50.915Z,98958.34
2023-01-18T00:06:19.353Z,98955.41
2023-01-18T00:08:47.807Z,98955.91
2023-01-18T00:11:18.388Z,98955.06
2023-01-18T00:13:47.585Z,98960.84
2023-01-18T00:16:21.623Z,98961.50
2023-01-18T00:18:52.479Z,98967.59
2023-01-18T00:21:21.501Z,98968.91
2023-01-18T00:23:50.561Z,98973.75
2023-01-18T00:26:19.152Z,98967.94
2023-01-18T00:28:47.634Z,98972.75
2023-01-18T00:31:18.927Z,98968.00
2023-01-18T00:33:49.781Z,98970.00
2023-01-18T00:36:18.849Z,98967.69
2023-01-18T00:38:51.618Z,98977.16
2023-01-18T00:41:21.518Z,98977.47
2023-01-18T00:43:50.365Z,98978.31
2023-01-18T00:46:24.544Z,98980.28
2023-01-18T00:48:54.369Z,98974.31
2023-01-18T00:51:25.056Z,98979.97
2023-01-18T00:53:53.545Z,98982.78
2023-01-18T00:56:22.710Z,98981.13
2023-01-18T00:58:51.480Z,98989.41
2023-01-18T01:01:20.260Z,98993.25
2023-01-18T01:04:07.495Z,98988.91
2023-01-18T01:06:46.115Z,98998.69
2023-01-18T01:09:22.971Z,98986.75
2023-01-18T01:12:12.031Z,98985.59
2023-01-18T01:45:09.850Z,99012.75
2023-01-18T01:47:42.790Z,99011.13
2023-01-18T01:50:34.164Z,99015.41
2023-01-18T01:53:03.588Z,99017.41
2023-01-18T01:55:35.595Z,99017.84
2023-01-18T01:58:12.931Z,99008.47
2023-01-18T02:00:41.674Z,99019.41
2023-01-18T02:03:12.697Z,99014.44
2023-01-18T02:05:46.240Z,99021.19
2023-01-18T02:08:22.559Z,99021.03
2023-01-18T02:10:52.660Z,99018.38
2023-01-18T02:13:23.859Z,99016.00
2023-01-18T02:16:13.471Z,99019.31
2023-01-18T02:19:22.321Z,99015.38
2023-01-18T02:22:04.525Z,99023.00
2023-01-18T02:24:51.534Z,99025.28
2023-01-18T02:27:35.470Z,99018.16
2023-01-18T02:30:08.149Z,99020.13
2023-01-18T02:33:02.902Z,99013.34
2023-01-18T02:35:47.397Z,99023.56
2023-01-18T02:38:21.338Z,99025.06
2023-01-18T02:41:03.669Z,99018.09
2023-01-18T02:43:51.742Z,99025.94
2023-01-18T02:46:31.601Z,99042.16
2023-01-18T02:49:05.007Z,99034.41
2023-01-18T02:51:35.391Z,99030.41
2023-01-18T02:54:08.480Z,99032.88
2023-01-18T02:56:43.797Z,99031.50
2023-01-18T02:59:20.105Z,99038.47
2023-01-18T03:01:53.206Z,99039.31
2023-01-18T03:04:29.927Z,99046.47
2023-01-18T03:07:21.604Z,99044.88
2023-01-18T03:09:50.318Z,99051.44
2023-01-18T03:12:46.658Z,99046.16
2023-01-18T03:15:33.765Z,99042.72
2023-01-18T03:19:00.001Z,99046.75
2023-01-18T03:21:36.313Z,99049.25
2023-01-18T03:24:07.901Z,99051.84
2023-01-18T03:26:42.774Z,99058.53
2023-01-18T03:29:32.091Z,99067.00
2023-01-18T03:32:30.493Z,99061.53
2023-01-18T03:35:08.105Z,99062.97
2023-01-18T03:37:46.321Z,99062.84
2023-01-18T03:40:28.476Z,99062.84
2023-01-18T03:43:14.853Z,99065.00
2023-01-18T03:45:48.803Z,99066.25
2023-01-18T03:48:17.576Z,99069.19
2023-01-18T03:50:53.637Z,99072.16
2023-01-18T03:53:28.315Z,99085.75
2023-01-18T03:56:02.545Z,99086.47
2023-01-18T03:58:35.968Z,99082.38
2023-01-18T04:01:04.654Z,99087.38
2023-01-18T04:03:34.578Z,99086.97
2023-01-18T04:06:05.345Z,99092.66
2023-01-18T04:08:33.815Z,99097.31
2023-01-18T04:11:02.287Z,99104.56
2023-01-18T04:13:30.813Z,99100.97
2023-01-18T04:15:59.169Z,99107.84
2023-01-18T04:18:27.562Z,99100.31
2023-01-18T04:20:56.507Z,99104.16
2023-01-18T04:23:25.010Z,99103.97
2023-01-18T04:25:53.486Z,99101.94
2023-01-18T04:28:27.624Z,99108.41
2023-01-18T04:30:57.079Z,99104.59
2023-01-18T04:33:26.743Z,99105.47
2023-01-18T04:35:55.723Z,99103.81
2023-01-18T04:38:24.128Z,99107.69
2023-01-18T04:40:52.565Z,99103.44
2023-01-18T04:43:21.007Z,99113.72
2023-01-18T04:45:56.360Z,99108.97
2023-01-18T04:48:25.573Z,99116.97
2023-01-18T04:50:54.044Z,99114.56
2023-01-18T04:53:22.460Z,99116.19
2023-01-18T04:55:50.978Z,99115.66
2023-01-18T04:58:19.494Z,99120.84
2023-01-18T05:00:48.076Z,99115.28
2023-01-18T05:03:16.627Z,99117.75
2023-01-18T05:05:45.035Z,99125.94
2023-01-18T05:08:13.539Z,99124.56
2023-01-18T05:10:41.911Z,99136.47
2023-01-18T05:13:10.337Z,99133.72
2023-01-18T05:15:38.821Z,99137.69
2023-01-18T05:18:07.300Z,99142.56
2023-01-18T05:20:35.813Z,99143.69
2023-01-18T05:23:10.632Z,99145.00
2023-01-18T05:25:39.278Z,99142.97
2023-01-18T05:28:08.263Z,99144.16
2023-01-18T05:30:42.120Z,99146.97
2023-01-18T05:33:10.600Z,99150.22
2023-01-18T05:35:39.072Z,99149.91
2023-01-18T05:38:07.521Z,99153.72
2023-01-18T05:40:36.044Z,99159.22
2023-01-18T05:43:04.499Z,99161.81
2023-01-18T05:45:32.840Z,99159.16
2023-01-18T05:48:01.335Z,99168.84
2023-01-18T05:50:29.974Z,99170.72
2023-01-18T05:52:59.093Z,99180.09
2023-01-18T05:55:27.728Z,99180.16
2023-01-18T05:57:56.184Z,99182.50
2023-01-18T06:00:24.796Z,99186.38
2023-01-18T06:02:53.973Z,99194.31
2023-01-18T06:05:23.639Z,99192.72
2023-01-18T06:07:52.568Z,99191.03
2023-01-18T06:10:21.043Z,99199.38
2023-01-18T06:12:49.554Z,99191.41
2023-01-18T06:15:18.042Z,99196.16
2023-01-18T06:17:49.368Z,99209.25
2023-01-18T06:20:17.978Z,99206.84
2023-01-18T06:22:46.800Z,99212.78
2023-01-18T06:25:15.377Z,99207.84
2023-01-18T06:27:43.862Z,99218.50
2023-01-18T06:30:12.617Z,99215.72
2023-01-18T06:32:41.117Z,99219.38
2023-01-18T06:35:09.715Z,99221.34
2023-01-18T06:37:38.162Z,99225.66
2023-01-18T06:40:07.431Z,99231.50
2023-01-18T06:42:35.895Z,99240.78
2023-01-18T06:45:05.001Z,99240.50
2023-01-18T06:47:33.413Z,99245.63
2023-01-18T06:50:02.057Z,99241.59
2023-01-18T06:52:30.542Z,99239.88
2023-01-18T06:55:02.228Z,99243.19
2023-01-18T06:57:30.678Z,99249.81
2023-01-18T07:00:00.882Z,99257.03
2023-01-18T07:02:29.265Z,99258.84
2023-01-18T07:04:59.010Z,99265.91
2023-01-18T07:07:28.180Z,99275.16
2023-01-18T07:09:56.571Z,99273.34
2023-01-18T07:12:25.115Z,99279.72
2023-01-18T07:14:53.527Z,99272.19
2023-01-18T07:17:22.051Z,99286.19
2023-01-18T07:19:50.987Z,99285.13
2023-01-18T07:22:19.433Z,99284.88
2023-01-18T07:24:47.871Z,99284.28
2023-01-18T07:27:16.335Z,99287.25
2023-01-18T07:29:44.779Z,99287.91
2023-01-18T07:32:13.181Z,99291.50
2023-01-18T07:34:41.560Z,99294.13
2023-01-18T07:37:10.006Z,99301.78
2023-01-18T07:39:38.449Z,99301.06
2023-01-18T07:42:07.186Z,99306.81
2023-01-18T07:44:35.666Z,99305.09
2023-01-18T07:47:04.169Z,99307.75
2023-01-18T07:49:33.505Z,99306.66
2023-01-18T07:52:02.147Z,99311.97
2023-01-18T07:54:31.227Z,99309.56
2023-01-18T07:56:59.712Z,99327.66
2023-01-18T07:59:30.834Z,99327.94
2023-01-18T08:01:59.353Z,99327.69
2023-01-18T08:04:27.809Z,99330.97
2023-01-18T08:06:58.013Z,99324.50
2023-01-18T08:09:26.451Z,99334.44
2023-01-18T08:11:55.454Z,99336.25
2023-01-18T08:14:23.943Z,99340.25
2023-01-18T08:16:52.511Z,99340.53
2023-01-18T08:19:21.036Z,99349.72
2023-01-18T08:21:49.508Z,99346.84
2023-01-18T08:24:18.005Z,99348.72
2023-01-18T08:26:46.552Z,99356.94
2023-01-18T08:29:15.066Z,99350.41
2023-01-18T08:31:43.592Z,99357.75
2023-01-18T08:34:12.344Z,99353.69
2023-01-18T08:36:40.976Z,99358.38
2023-01-18T08:39:09.672Z,99355.72
2023-01-18T08:41:38.314Z,99355.41
2023-01-18T08:44:06.718Z,99361.06
2023-01-18T08:46:36.425Z,99370.47
2023-01-18T08:49:06.419Z,99375.28
2023-01-18T08:51:34.920Z,99379.00
2023-01-18T08:54:03.496Z,99386.09
2023-01-18T08:56:32.525Z,99385.66
2023-01-18T08:59:02.515Z,99393.75
2023-01-18T09:01:31.087Z,99395.34
2023-01-18T09:03:59.632Z,99398.00
2023-01-18T09:06:32.205Z,99398.69
2023-01-18T09:09:01.174Z,99401.94
2023-01-18T09:11:29.596Z,99405.94
2023-01-18T09:14:00.937Z,99404.31
2023-01-18T09:16:31.124Z,99409.97
2023-01-18T09:18:59.822Z,99410.38
2023-01-18T09:21:28.656Z,99407.88
2023-01-18T09:23:57.957Z,99410.50
2023-01-18T09:26:27.771Z,99421.28
2023-01-18T09:28:56.489Z,99426.28
2023-01-18T09:31:27.356Z,99432.91
2023-01-18T09:34:06.301Z,99436.56
2023-01-18T09:36:51.632Z,99434.38
2023-01-18T09:39:21.864Z,99439.00
2023-01-18T09:42:02.211Z,99435.88
2023-01-18T09:44:33.811Z,99430.38
2023-01-18T09:47:27.993Z,99444.84
2023-01-18T09:50:14.428Z,99447.50
2023-01-18T09:53:13.945Z,99461.44
2023-01-18T09:56:05.657Z,99458.94
2023-01-18T09:59:03.412Z,99469.84
2023-01-18T10:01:33.888Z,99466.72
2023-01-18T10:04:16.558Z,99467.28
2023-01-18T10:06:54.181Z,99467.03
2023-01-18T10:09:24.806Z,99474.84
2023-01-18T10:12:08.529Z,99474.44
2023-01-18T10:14:54.528Z,99473.63
2023-01-18T10:17:29.666Z,99476.81
2023-01-18T10:19:58.053Z,99478.03
2023-01-18T10:22:36.299Z,99492.88
2023-01-18T10:25:14.659Z,99483.78
2023-01-18T10:27:58.133Z,99485.63
2023-01-18T10:30:45.306Z,99479.97
2023-01-18T10:33:27.496Z,99478.03
2023-01-18T10:36:01.932Z,99477.31
2023-01-18T10:38:30.801Z,99487.31
2023-01-18T10:41:03.282Z,99486.84
2023-01-18T10:43:32.006Z,99482.41
2023-01-18T10:46:00.661Z,99480.13
2023-01-18T10:48:32.520Z,99484.13
2023-01-18T10:51:05.947Z,99486.63
2023-01-18T10:53:38.482Z,99477.44
2023-01-18T10:56:09.893Z,99485.78
2023-01-18T10:58:50.959Z,99481.66
2023-01-18T11:01:28.771Z,99483.31
2023-01-18T11:04:07.614Z,99482.81
2023-01-18T11:06:49.833Z,99480.16
2023-01-18T11:09:55.561Z,99487.50
2023-01-18T11:12:45.659Z,99492.69
2023-01-18T11:15:14.157Z,99497.47
2023-01-18T11:18:02.885Z,99496.16
2023-01-18T11:20:39.205Z,99492.31
2023-01-18T11:23:10.521Z,99501.97
2023-01-18T11:26:04.173Z,99494.47
2023-01-18T11:28:43.465Z,99499.44
2023-01-18T11:31:15.078Z,99494.00
2023-01-18T11:33:55.857Z,99505.28
2023-01-18T11:36:40.070Z,99496.13
2023-01-18T11:39:38.021Z,99496.06
2023-01-18T11:42:30.308Z,99498.66
2023-01-18T11:45:26.099Z,99496.47
2023-01-18T11:48:02.443Z,99484.66
2023-01-18T11:50:49.256Z,99499.03
2023-01-18T11:53:58.185Z,99496.13
2023-01-18T11:56:29.403Z,99496.31
2023-01-18T11:58:58.490Z,99493.25
2023-01-18T12:01:56.803Z,99493.00
2023-01-18T12:04:36.820Z,99491.81
2023-01-18T12:07:47.640Z,99502.72
2023-01-18T12:10:24.884Z,99511.41
2023-01-18T12:13:20.167Z,99502.19
2023-01-18T12:16:19.717Z,99508.75
2023-01-18T12:18:48.119Z,99509.50
2023-01-18T12:21:31.413Z,99522.25
2023-01-18T12:24:15.092Z,99527.03
2023-01-18T12:26:53.137Z,99521.75
2023-01-18T12:29:42.801Z,99520.97
2023-01-18T12:32:57.680Z,99524.66
2023-01-18T12:35:53.257Z,99522.75
2023-01-18T12:38:27.622Z,99520.72
2023-01-18T12:41:25.478Z,99530.09
2023-01-18T12:44:13.077Z,99515.75
2023-01-18T12:46:54.558Z,99523.84
2023-01-18T12:49:23.166Z,99530.31
2023-01-18T12:52:09.214Z,99526.34
2023-01-18T12:54:50.746Z,99530.91
2023-01-18T12:57:21.481Z,99523.09
2023-01-18T12:59:57.873Z,99544.13
2023-01-18T13:02:44.348Z,99543.94
2023-01-18T13:05:17.530Z,99544.38
2023-01-18T13:07:51.457Z,99545.63
2023-01-18T13:10:27.039Z,99540.91
2023-01-18T13:12:57.153Z,99545.50
2023-01-18T13:15:34.418Z,99547.31
2023-01-18T13:18:47.627Z,99550.03
2023-01-18T13:21:25.280Z,99554.19
2023-01-18T13:24:02.703Z,99552.84
2023-01-18T13:26:34.496Z,99561.13
2023-01-18T13:29:22.311Z,99558.16
2023-01-18T13:31:51.124Z,99561.41
2023-01-18T13:34:24.285Z,99565.03
2023-01-18T13:37:02.439Z,99559.25
2023-01-18T13:39:47.980Z,99560.59
2023-01-18T13:42:25.654Z,99560.53
2023-01-18T13:45:14.914Z,99569.28
2023-01-18T13:47:50.227Z,99567.97
2023-01-18T13:50:40.081Z,99568.63
2023-01-18T13:53:14.665Z,99572.22
2023-01-18T13:55:55.329Z,99576.91
2023-01-18T13:58:32.939Z,99571.00
2023-01-18T14:01:04.991Z,99583.38
2023-01-18T14:03:37.711Z,99583.75
2023-01-18T14:06:12.443Z,99584.47
2023-01-18T14:08:51.254Z,99593.03
2023-01-18T14:11:34.823Z,99589.91
2023-01-18T14:14:22.002Z,99589.97
2023-01-18T14:17:00.440Z,99592.09
2023-01-18T14:19:30.628Z,99597.09
2023-01-18T14:22:05.941Z,99599.59
2023-01-18T14:24:53.090Z,99601.72
2023-01-18T14:27:25.442Z,99612.38
2023-01-18T14:30:12.768Z,99605.25
2023-01-18T14:32:47.086Z,99607.66
2023-01-18T14:35:20.319Z,99605.88
2023-01-18T14:37:48.829Z,99620.56
2023-01-18T14:40:26.738Z,99605.47
2023-01-18T14:43:02.369Z,99613.69
2023-01-18T14:45:38.760Z,99608.63
2023-01-18T14:48:19.985Z,99601.19
2023-01-18T14:50:50.959Z,99606.31
2023-01-18T14:53:26.859Z,99614.03
2023-01-18T14:56:14.274Z,99619.59
2023-01-18T14:58:51.590Z,99628.16
2023-01-18T15:01:40.408Z,99631.88
2023-01-18T15:04:26.471Z,99633.84
2023-01-18T15:06:59.859Z,99632.06
2023-01-18T15:09:32.703Z,99626.22
2023-01-18T15:12:04.776Z,99634.13
2023-01-18T15:14:35.778Z,99630.22
2023-01-18T15:17:11.433Z,99635.94
2023-01-18T15:19:44.049Z,99639.09
2023-01-18T15:22:15.892Z,99640.72
2023-01-18T15:24:45.416Z,99642.00
2023-01-18T15:27:19.491Z,99647.28
2023-01-18T15:29:50.880Z,99643.75
2023-01-18T15:32:22.098Z,99639.72
2023-01-18T15:34:52.997Z,99649.22
2023-01-18T15:37:30.349Z,99647.50
2023-01-18T15:39:58.775Z,99643.13
2023-01-18T15:42:31.019Z,99653.13
2023-01-18T15:44:59.775Z,99646.50
2023-01-18T15:47:32.669Z,99646.78
2023-01-18T15:50:03.910Z,99652.53
2023-01-18T15:52:45.345Z,99654.94
2023-01-18T15:55:28.072Z,99658.78
2023-01-18T15:58:25.266Z,99664.69
2023-01-18T16:01:00.050Z,99666.94
2023-01-18T16:03:35.667Z,99658.69
2023-01-18T16:06:11.071Z,99668.97
2023-01-18T16:09:12.853Z,99671.13
2023-01-18T16:11:41.635Z,99666.50
2023-01-18T16:14:31.256Z,99678.00
2023-01-18T16:17:10.288Z,99665.91
2023-01-18T16:19:48.933Z,99676.56
2023-01-18T16:22:38.583Z,99670.16
2023-01-18T16:25:10.125Z,99677.06
2023-01-18T16:27:52.642Z,99680.84
2023-01-18T16:30:24.184Z,99679.22
2023-01-18T16:32:52.743Z,99676.22
2023-01-18T16:35:23.645Z,99689.41
2023-01-18T16:37:52.144Z,99690.56
2023-01-18T16:40:23.692Z,99690.25
2023-01-18T16:43:04.914Z,99692.22
2023-01-18T16:45:36.244Z,99696.75
2023-01-18T16:48:05.551Z,99694.22
2023-01-18T16:50:34.171Z,99702.22
2023-01-18T16:53:03.729Z,99698.25
2023-01-18T16:55:32.547Z,99704.25
2023-01-18T16:58:01.530Z,99707.91
2023-01-18T17:00:41.586Z,99707.25
2023-01-18T17:03:09.954Z,99707.06
2023-01-18T17:05:38.509Z,99699.75
2023-01-18T17:08:12.845Z,99699.94
2023-01-18T17:10:44.188Z,99710.91
2023-01-18T17:13:12.716Z,99708.91
2023-01-18T17:15:42.407Z,99707.91
2023-01-18T17:18:24.024Z,99719.91
2023-01-18T17:20:53.502Z,99712.56
2023-01-18T17:23:22.920Z,99721.75
2023-01-18T17:25:51.535Z,99733.56
2023-01-18T17:28:20.002Z,99722.75
2023-01-18T17:30:49.729Z,99723.56
2023-01-18T17:33:24.580Z,99724.91
2023-01-18T17:35:54.537Z,99731.91
2023-01-18T17:38:26.227Z,99729.59
2023-01-18T17:40:56.637Z,99731.56
2023-01-18T17:43:34.217Z,99736.22
2023-01-18T17:46:05.335Z,99738.25
2023-01-18T17:48:34.517Z,99729.44
2023-01-18T17:51:07.879Z,99739.88
2023-01-18T17:53:37.602Z,99735.88
2023-01-18T17:56:11.535Z,99738.91
2023-01-18T17:58:40.365Z,99746.56
2023-01-18T18:01:11.854Z,99756.41
2023-01-18T18:03:47.011Z,99757.88
2023-01-18T18:06:26.141Z,99761.41
2023-01-18T18:09:01.649Z,99763.06
2023-01-18T18:11:30.465Z,99762.22
2023-01-18T18:13:59.025Z,99763.03
2023-01-18T18:16:27.898Z,99763.38
2023-01-18T18:18:58.194Z,99774.00
2023-01-18T18:21:27.168Z,99779.88
2023-01-18T18:23:55.658Z,99781.13
2023-01-18T18:26:24.128Z,99785.53
2023-01-18T18:28:52.603Z,99792.69
2023-01-18T18:31:21.260Z,99798.38
2023-01-18T18:33:49.659Z,99804.34
2023-01-18T18:36:18.185Z,99808.44
2023-01-18T18:38:46.641Z,99809.09
2023-01-18T18:41:15.014Z,99813.84
2023-01-18T18:43:43.575Z,99810.16
2023-01-18T18:46:11.968Z,99807.81
2023-01-18T18:48:40.461Z,99807.50
2023-01-18T18:51:09.780Z,99814.19
2023-01-18T18:53:39.875Z,99818.88
2023-01-18T18:56:10.183Z,99820.06
2023-01-18T18:58:39.975Z,99816.50
2023-01-18T19:01:18.714Z,99825.38
2023-01-18T19:03:47.952Z,99831.47
2023-01-18T19:06:16.698Z,99829.53
2023-01-18T19:08:45.420Z,99830.84
2023-01-18T19:11:15.524Z,99836.84
2023-01-18T19:13:45.139Z,99839.03
2023-01-18T19:16:13.809Z,99833.81
2023-01-18T19:18:42.214Z,99840.19
2023-01-18T19:21:11.059Z,99834.88
2023-01-18T19:23:39.482Z,99848.69
2023-01-18T19:26:07.886Z,99845.69
2023-01-18T19:28:36.620Z,99847.53
2023-01-18T19:31:06.831Z,99846.63
2023-01-18T19:33:35.431Z,99844.03
2023-01-18T19:36:12.263Z,99829.53
2023-01-18T19:38:46.572Z,99835.56
2023-01-18T19:41:17.531Z,99845.28
2023-01-18T19:43:49.554Z,99849.78
2023-01-18T19:46:18.152Z,99848.09
2023-01-18T19:48:46.778Z,99856.94
2023-01-18T19:51:22.410Z,99846.78
2023-01-18T19:53:56.178Z,99844.94
2023-01-18T19:56:25.647Z,99847.41
2023-01-18T19:58:54.179Z,99852.09
2023-01-18T20:01:35.086Z,99846.53
2023-01-18T20:04:06.610Z,99851.53
2023-01-18T20:06:37.467Z,99859.94
2023-01-18T20:09:17.705Z,99860.88
2023-01-18T20:11:47.095Z,99860.22
2023-01-18T20:14:15.878Z,99857.91
2023-01-18T20:16:45.983Z,99864.19
2023-01-18T20:19:15.685Z,99871.13
2023-01-18T20:21:44.109Z,99866.38
2023-01-18T20:24:12.542Z,99866.72
2023-01-18T20:26:42.077Z,99870.44
2023-01-18T20:29:11.022Z,99872.06
2023-01-18T20:31:40.433Z,99881.75
2023-01-18T20:34:09.918Z,99880.03
2023-01-18T20:36:38.620Z,99877.25
2023-01-18T20:39:07.082Z,99882.16
2023-01-18T20:41:35.516Z,99888.03
2023-01-18T20:44:04.033Z,99886.22
2023-01-18T20:46:32.493Z,99887.50
2023-01-18T20:49:03.313Z,99887.94
2023-01-18T20:51:32.964Z,99890.00
2023-01-18T20:54:02.153Z,99894.41
2023-01-18T20:56:31.961Z,99888.53
2023-01-18T20:59:00.454Z,99896.94
2023-01-18T21:01:32.622Z,99904.97
2023-01-18T21:04:02.837Z,99906.19
2023-01-18T21:06:32.202Z,99912.81
2023-01-18T21:09:01.378Z,99913.50
2023-01-18T21:11:29.884Z,99902.28
2023-01-18T21:13:59.496Z,99914.31
2023-01-18T21:16:28.088Z,99915.59
2023-01-18T21:18:59.047Z,99915.69
2023-01-18T21:21:29.591Z,99916.63
2023-01-18T21:23:58.214Z,99909.88
2023-01-18T21:26:27.127Z,99913.00
2023-01-18T21:28:55.856Z,99906.19
2023-01-18T21:31:24.488Z,99913.03
2023-01-18T21:33:54.247Z,99923.81
2023-01-18T21:36:23.161Z,99927.38
2023-01-18T21:38:51.801Z,99920.13
2023-01-18T21:41:38.750Z,99926.34
2023-01-18T21:44:25.613Z,99922.28
2023-01-18T21:46:54.077Z,99922.13
2023-01-18T21:52:49.000Z,99925.31
2023-01-18T21:55:18.227Z,99929.22
2023-01-18T21:58:06.576Z,99934.28
2023-01-18T22:00:39.485Z,99938.97
2023-01-18T22:03:09.456Z,99943.19
2023-01-18T22:05:40.808Z,99949.88
2023-01-18T22:08:10.083Z,99957.25
2023-01-18T22:10:38.577Z,99945.88
2023-01-18T22:13:07.077Z,99948.53
2023-01-18T22:15:35.650Z,99954.00
2023-01-18T22:18:04.913Z,99944.50
2023-01-18T22:20:33.338Z,99949.91
2023-01-18T22:23:01.742Z,99950.75
2023-01-18T22:25:30.177Z,99944.00
2023-01-18T22:27:58.820Z,99935.84
2023-01-18T22:30:28.513Z,99937.16
2023-01-18T22:32:56.920Z,99934.19
2023-01-18T22:35:25.388Z,99930.91
2023-01-18T22:37:53.850Z,99933.97
2023-01-18T22:40:22.327Z,99956.31
2023-01-18T22:42:50.713Z,99957.91
2023-01-18T22:45:19.081Z,99953.63
2023-01-18T22:47:47.611Z,99958.22
2023-01-18T22:50:16.801Z,99968.41
2023-01-18T22:52:45.285Z,99954.25
2023-01-18T22:55:13.791Z,99975.06
2023-01-18T22:57:42.248Z,99981.31
2023-01-18T23:00:11.222Z,99970.22
2023-01-18T23:02:39.658Z,99976.44
2023-01-18T23:05:08.227Z,99986.09
2023-01-18T23:07:36.625Z,99986.41
2023-01-18T23:10:05.187Z,99988.53
2023-01-18T23:12:33.736Z,99987.78
2023-01-18T23:15:20.882Z,99990.38
2023-01-18T23:17:49.977Z,99990.59
2023-01-18T23:20:19.846Z,99997.28
2023-01-18T23:22:48.272Z,99981.84
2023-01-18T23:25:16.825Z,99992.63
2023-01-18T23:27:45.243Z,99994.75
2023-01-18T23:30:14.194Z,99992.63
2023-01-18T23:32:42.647Z,99993.69
2023-01-18T23:35:11.135Z,99996.06
2023-01-18T23:37:39.648Z,99992.16
2023-01-18T23:40:27.922Z,99991.78
2023-01-18T23:43:14.805Z,99982.84
2023-01-18T23:46:02.798Z,99970.59
2023-01-18T23:48:49.882Z,99979.63
2023-01-18T23:51:36.679Z,99985.00
2023-01-18T23:54:15.610Z,99990.06
2023-01-18T23:56:46.076Z,99992.00
2023-01-18T23:59:14.482Z,99985.28
